METAR Data
IDs: Format: Raw Decoded Include TAF

Data at: 0941 UTC 18 Jan 2022

TJSJ 180856Z 00000KT 10SM FEW048 22/19 A3001 RMK AO2 RAB0759E01 SLP160 P0000 60000 T02220189 55007